Hi'Ialakai — WTEY — position and weather

sailwx.info

Track history (hours):
 
Tides and Currents Weather Stations Pressure Air Temp Water Temp Dewpoint Dewpoint Depression Visibility Wind Speed Wind Dir Waves Ship Positions

Oceanographic research ship Hi'Ialakai (USA)

Detailed information on ship capabilities available from University of Delaware's Ocean Information Center.

Last reported at 2017-Jun-21 03:52 UTC. Time now 2017-Jul-20 18:36 UTC.
Position N 15°12' E 145°36'.
Warning: this ship's position is 29 days out of date.

Type: Passenger vessel. MMSI: 368926089.

Wind from 090 at 14 knots

Barometer 1012.9 mb
Air temperature 31.7 ° C
Water temperature 30.5 ° C

Date/timePositionNaut miles runAvg speedWind from/ knotsBaromVisibWave heightAir tempDewpointWater temp
2017-Jun-21 03:52N 15°12' E 145°36'0 0.0 090 / 141012.9 31.7 30.5
2017-Jun-21 02:53N 15°12' E 145°36'0 0.0 110 / 181013.7 31.243.130.4
2017-Jun-21 01:54N 15°12' E 145°36'0 0.0 110 / 171014.1 31.448.530.4
2017-Jun-21 00:54N 15°12' E 145°36'6 2.9 100 / 141014.5 31.4 30.4
2017-Jun-20 22:56N 15°12' E 145°42'0 0.0 080 / 111015.0 31.5 30.3
2017-Jun-20 21:57N 15°12' E 145°42'0 0.0 080 / 111014.4 30.1 30.3
2017-Jun-20 20:58N 15°12' E 145°42'0 0.0 070 / 81013.8 30.0 30.3
2017-Jun-20 19:59N 15°12' E 145°42'8 3.8 050 / 121013.1 29.7 30.3
2017-Jun-20 17:46N 15°18' E 145°36'0 0.0 050 / 41012.6 28.8 30.4
2017-Jun-20 16:47N 15°18' E 145°36'0 0.0 010 / 51012.8 28.6 30.4
2017-Jun-20 15:48N 15°18' E 145°36'6 5.9 360 / 31013.6 28.4 30.4
2017-Jun-20 14:49N 15°18' E 145°42'6 5.9 150 / 31013.9 28.7 30.4
2017-Jun-20 13:50N 15°18' E 145°48'6 5.9
2017-Jun-20 12:51N 15°18' E 145°54'6 6.1 140 / 41014.8 28.1 30.5
2017-Jun-20 11:52N 15°12' E 145°54'6 6.0 100 / 121015.0 26.4 30.5
2017-Jun-20 10:52N 15°06' E 145°54'8 8.5 150 / 71014.0 30.6 30.4
2017-Jun-20 09:53N 15°00' E 145°48'6 5.9 110 / 71013.6 30.0 30.3
2017-Jun-20 08:54N 15°00' E 145°54'6 5.9 070 / 71013.1 30.5 30.3
2017-Jun-20 07:55N 15°00' E 145°48'8 8.5 260 / 21012.6 30.0 30.3
2017-Jun-20 06:56N 15°06' E 145°42'0 0.0 090 / 61012.0 31.5 30.3
2017-Jun-20 05:57N 15°06' E 145°42'0 0.0 100 / 91011.8 32.4 30.3
2017-Jun-20 04:58N 15°06' E 145°42'0 0.0 100 / 81011.5 32.1 30.2
2017-Jun-20 03:59N 15°06' E 145°42'6 0.2 090 / 91012.1 31.9 30.2
2017-Jun-19 01:47N 15°00' E 145°42'0 0.0 080 / 121012.5 31.5 30.0
2017-Jun-19 00:48N 15°00' E 145°42'0 0.0 090 / 141012.8 31.1 30.1
2017-Jun-18 22:49N 15°00' E 145°42'0 0.0 100 / 71012.9 30.5 30.1
2017-Jun-18 21:50N 15°00' E 145°42'0 0.0 100 / 81012.8 29.1 30.1
2017-Jun-18 20:51N 15°00' E 145°42'1313.6 100 / 121012.5 27.6 30.1
2017-Jun-18 19:52N 15°12' E 145°36'6 6.1 070 / 101011.8 29.8 30.1
2017-Jun-18 18:53N 15°18' E 145°36'8 8.5 090 / 141011.4 29.5 30.1
2017-Jun-18 17:54N 15°24' E 145°30'6 6.1 080 / 141011.6 27.5 30.2
2017-Jun-18 16:55N 15°30' E 145°30'6 6.0 090 / 101011.6 30.2 30.2
2017-Jun-18 15:55N 15°36' E 145°30'1313.5 080 / 91012.0 30.2 30.4
2017-Jun-18 14:56N 15°48' E 145°24'6 6.1 120 / 71012.3 30.1 30.6
2017-Jun-18 13:57N 15°54' E 145°24'6 6.3 110 / 131013.1 28.9 30.6
2017-Jun-18 13:00N 16°00' E 145°24'43 3.8 160 / 21013.8 29.3 30.5
2017-Jun-18 01:47N 16°36' E 145°48'8 8.5 070 / 121013.5 31.3 30.5
2017-Jun-18 00:48N 16°42' E 145°42'0 0.0 090 / 81013.9 30.9 30.4
2017-Jun-17 22:49N 16°42' E 145°42'0 0.0 070 / 91014.4 31.024.330.2
2017-Jun-17 21:50N 16°42' E 145°42'0 0.0 120 / 61014.2 31.312.130.1
2017-Jun-17 20:51N 16°42' E 145°42'0 0.0 060 / 71014.0 30.2 30.2
2017-Jun-17 19:52N 16°42' E 145°42'6 5.8 090 / 41013.6 30.0 30.3
2017-Jun-17 18:53N 16°42' E 145°36'6 5.8 070 / 61013.2 30.5 30.3
2017-Jun-17 17:54N 16°42' E 145°42'6 6.0 090 / 81013.1 30.3 30.3
2017-Jun-17 16:54N 16°48' E 145°42'6 6.1 070 / 81012.9 30.5 30.3
2017-Jun-17 15:55N 16°54' E 145°42'8 8.4 080 / 91013.1 30.1 30.4
2017-Jun-17 14:56N 17°00' E 145°36'60 3.5 090 / 111013.5 30.4 30.4
2017-Jun-16 21:48N 18°00' E 145°42'0 0.0 110 / 41014.4 31.4 30.2
2017-Jun-16 20:49N 18°00' E 145°42'0 0.0 130 / 41014.1 32.3 30.3
2017-Jun-16 19:49N 18°00' E 145°42'8 8.4 190 / 41013.9 30.4 30.2
2017-Jun-16 18:50N 18°06' E 145°36'0 0.0 160 / 51013.5 30.328.830.3
2017-Jun-16 17:51N 18°06' E 145°36'0 0.0 120 / 81012.8 30.5 30.3
2017-Jun-16 16:52N 18°06' E 145°36'0 0.0 170 / 71012.8 30.535.030.5
2017-Jun-16 15:53N 18°06' E 145°36'0 0.0 140 / 81012.9 30.634.330.5
2017-Jun-16 14:54N 18°06' E 145°36'0 0.0 120 / 81012.9 30.5 30.4
2017-Jun-16 13:55N 18°06' E 145°36'0 0.0 150 / 91013.6 30.725.830.4
2017-Jun-16 12:55N 18°06' E 145°36'0 0.0 110 / 101013.6 30.6 30.4
2017-Jun-16 11:56N 18°06' E 145°36'0 0.0 140 / 101013.6 30.3 30.6
2017-Jun-16 10:57N 18°06' E 145°36'6 5.8 160 / 71013.3 30.5 30.3
2017-Jun-16 09:58N 18°06' E 145°30'6 5.8 140 / 111013.1 30.4 30.7
2017-Jun-16 08:59N 18°06' E 145°24'17 4.0 130 / 61012.9 30.7 30.7
2017-Jun-16 04:45N 18°06' E 145°42'0 0.0 190 / 51012.7 35.4 7.930.6
2017-Jun-16 03:46N 18°06' E 145°42'0 0.0 180 / 81013.2 31.9 30.4
2017-Jun-16 02:47N 18°06' E 145°42'0 0.0 170 / 81013.5 32.8 30.2
2017-Jun-16 01:48N 18°06' E 145°42'0 0.0 160 / 81013.8 31.4 30.3
2017-Jun-16 00:49N 18°06' E 145°42'0 0.0 180 / 61014.3 34.2 2.430.2
2017-Jun-15 22:51N 18°06' E 145°42'0 0.0 180 / 51014.5 32.0 30.0
2017-Jun-15 21:51N 18°06' E 145°42'0 0.0 120 / 31014.2 31.2 30.2
2017-Jun-15 20:52N 18°06' E 145°42'0 0.0 120 / 41013.9 30.023.730.1
2017-Jun-15 19:53N 18°06' E 145°42'0 0.0 140 / 41013.7 28.0 30.0
2017-Jun-15 18:54N 18°06' E 145°42'1313.5 030 / 21013.4 28.9 30.3
2017-Jun-15 17:55N 18°18' E 145°36'6 6.1 080 / 61013.3 29.3 30.2
2017-Jun-15 16:56N 18°24' E 145°36'1313.5 060 / 71013.2 29.5 30.3
2017-Jun-15 15:57N 18°36' E 145°30'6 6.1 070 / 91013.9 28.8 30.4
2017-Jun-15 14:58N 18°42' E 145°30'1313.3 150 / 21014.4 30.2 30.3
2017-Jun-15 13:58N 18°54' E 145°24'75 5.7 090 / 41014.8 30.5 30.3
2017-Jun-15 00:46N 20°06' E 145°00'8 4.2 150 / 61014.8 33.4 30.7
2017-Jun-14 22:48N 20°00' E 145°06'8 8.4 140 / 91015.1 31.9 30.8
2017-Jun-14 21:49N 20°06' E 145°00'0 0.0 130 / 101014.7 30.8 30.8
2017-Jun-14 20:50N 20°06' E 145°00'8 8.2 130 / 61014.7 31.7 30.8
2017-Jun-14 19:50N 20°00' E 145°06'0 0.0 130 / 81013.9 30.7 30.8
2017-Jun-14 18:51N 20°00' E 145°06'6 5.7 100 / 71013.5 30.4 30.9
2017-Jun-14 17:52N 20°00' E 145°00'6 6.1 110 / 51014.3 30.2 30.8
2017-Jun-14 16:53N 20°06' E 145°00'0 0.0 130 / 41014.7 30.7 30.8
2017-Jun-14 15:56N 20°06' E 145°00'0 0.0 160 / 21014.9 30.3 30.7
2017-Jun-14 14:57N 20°06' E 145°00'0 0.0 170 / 21015.4 30.4 30.9
2017-Jun-14 13:58N 20°06' E 145°00'6 6.1 160 / 31015.8 30.4 31.0
2017-Jun-14 12:59N 20°00' E 145°00'11 1.2 190 / 31016.0 30.312.931.0
2017-Jun-14 03:47N 20°00' E 145°12'0 0.0 190 / 41014.7 32.8 31.0
2017-Jun-14 02:48N 20°00' E 145°12'0 0.0 170 / 61014.7 33.9 30.9
2017-Jun-14 01:48N 20°00' E 145°12'0 0.0 130 / 71015.0 31.8 30.8
2017-Jun-14 00:49N 20°00' E 145°12'0 0.0 130 / 41015.2 33.1 30.8
2017-Jun-13 22:51N 20°00' E 145°12'0 0.0 130 / 51015.0 32.2 30.6
2017-Jun-13 21:52N 20°00' E 145°12'0 0.0 120 / 51014.7 31.7 30.6
2017-Jun-13 20:53N 20°00' E 145°12'0 0.0 060 / 31014.6 31.8 30.6
2017-Jun-13 19:54N 20°00' E 145°12'6 5.6 140 / 61014.2 30.4 30.6
2017-Jun-13 18:54N 20°00' E 145°06'6 6.1 140 / 81014.2 30.429.930.8
2017-Jun-13 17:55N 19°54' E 145°06'6 6.1 120 / 91014.3 30.428.930.8
2017-Jun-13 16:56N 20°00' E 145°06'0 0.0 120 / 61014.3 30.3 30.9
2017-Jun-13 15:57N 20°00' E 145°06'0 0.0 280 / 11014.7 30.1 30.9
2017-Jun-13 14:58N 20°00' E 145°06'0 0.0 120 / 11015.3 30.6 30.8
2017-Jun-13 13:59N 20°00' E 145°06'0 0.0 170 / 11015.8 30.9 30.8
2017-Jun-13 13:00N 20°00' E 145°06'6 0.2 160 / 31016.2 31.030.630.8
2017-Jun-12 03:46N 20°00' E 145°12'0 0.0 270 / 41013.9 33.2 30.8
2017-Jun-12 02:47N 20°00' E 145°12'0 0.0 240 / 21014.1 34.8 30.6
2017-Jun-12 01:48N 20°00' E 145°12'0 0.0 170 / 31014.3 33.2 30.6
2017-Jun-12 00:49N 20°00' E 145°12'0 0.0 170 / 41014.4 33.3 30.7
2017-Jun-11 22:51N 20°00' E 145°12'0 0.0 160 / 41014.8 32.3 0.130.3
2017-Jun-11 21:51N 20°00' E 145°12'0 0.0 160 / 61014.4 31.1 30.3
2017-Jun-11 20:52N 20°00' E 145°12'0 0.0 130 / 31014.3 31.2 30.3
2017-Jun-11 19:53N 20°00' E 145°12'0 0.0 120 / 31013.9 30.0 30.3
2017-Jun-11 18:54N 20°00' E 145°12'6 5.7 160 / 21013.6 29.6 30.4
2017-Jun-11 17:55N 20°00' E 145°06'0 0.0 100 / 31013.4 29.8 30.5
2017-Jun-11 16:56N 20°00' E 145°06'0 0.0 120 / 11013.5 29.8 30.6
2017-Jun-11 15:57N 20°00' E 145°06'6 6.0 140 / 31014.0 30.225.430.6
2017-Jun-11 14:57N 19°54' E 145°06'6 6.1 100 / 11014.4 30.2 30.7
2017-Jun-11 13:58N 20°00' E 145°06'0 0.0 060 / 31015.0 30.2 30.6
2017-Jun-11 12:59N 20°00' E 145°06'   080 / 41015.4 30.322.830.6
Track history (hours):
 
Tides and Currents Weather Stations Pressure Air Temp Water Temp Dewpoint Dewpoint Depression Visibility Wind Speed Wind Dir Waves Ship Positions

Oceanographic research ship Hi'Ialakai (USA)

Detailed information on ship capabilities available from University of Delaware's Ocean Information Center.

Last reported at 2017-Jun-21 03:52 UTC. Time now 2017-Jul-20 18:36 UTC.
Position N 15°12' E 145°36'.
Warning: this ship's position is 29 days out of date.

Type: Passenger vessel. MMSI: 368926089.

Wind from 090 at 14 knots

Barometer 1012.9 mb
Air temperature 31.7 ° C
Water temperature 30.5 ° C

Date/timePositionNaut miles runAvg speedWind from/ knotsBaromVisibWave heightAir tempDewpointWater temp
2017-Jun-21 03:52N 15°12' E 145°36'0 0.0 090 / 141012.9 31.7 30.5
2017-Jun-21 02:53N 15°12' E 145°36'0 0.0 110 / 181013.7 31.243.130.4
2017-Jun-21 01:54N 15°12' E 145°36'0 0.0 110 / 171014.1 31.448.530.4
2017-Jun-21 00:54N 15°12' E 145°36'6 2.9 100 / 141014.5 31.4 30.4
2017-Jun-20 22:56N 15°12' E 145°42'0 0.0 080 / 111015.0 31.5 30.3
2017-Jun-20 21:57N 15°12' E 145°42'0 0.0 080 / 111014.4 30.1 30.3
2017-Jun-20 20:58N 15°12' E 145°42'0 0.0 070 / 81013.8 30.0 30.3
2017-Jun-20 19:59N 15°12' E 145°42'8 3.8 050 / 121013.1 29.7 30.3
2017-Jun-20 17:46N 15°18' E 145°36'0 0.0 050 / 41012.6 28.8 30.4
2017-Jun-20 16:47N 15°18' E 145°36'0 0.0 010 / 51012.8 28.6 30.4
2017-Jun-20 15:48N 15°18' E 145°36'6 5.9 360 / 31013.6 28.4 30.4
2017-Jun-20 14:49N 15°18' E 145°42'6 5.9 150 / 31013.9 28.7 30.4
2017-Jun-20 13:50N 15°18' E 145°48'6 5.9
2017-Jun-20 12:51N 15°18' E 145°54'6 6.1 140 / 41014.8 28.1 30.5
2017-Jun-20 11:52N 15°12' E 145°54'6 6.0 100 / 121015.0 26.4 30.5
2017-Jun-20 10:52N 15°06' E 145°54'8 8.5 150 / 71014.0 30.6 30.4
2017-Jun-20 09:53N 15°00' E 145°48'6 5.9 110 / 71013.6 30.0 30.3
2017-Jun-20 08:54N 15°00' E 145°54'6 5.9 070 / 71013.1 30.5 30.3
2017-Jun-20 07:55N 15°00' E 145°48'8 8.5 260 / 21012.6 30.0 30.3
2017-Jun-20 06:56N 15°06' E 145°42'0 0.0 090 / 61012.0 31.5 30.3
2017-Jun-20 05:57N 15°06' E 145°42'0 0.0 100 / 91011.8 32.4 30.3
2017-Jun-20 04:58N 15°06' E 145°42'0 0.0 100 / 81011.5 32.1 30.2
2017-Jun-20 03:59N 15°06' E 145°42'6 0.2 090 / 91012.1 31.9 30.2
2017-Jun-19 01:47N 15°00' E 145°42'0 0.0 080 / 121012.5 31.5 30.0
2017-Jun-19 00:48N 15°00' E 145°42'0 0.0 090 / 141012.8 31.1 30.1
2017-Jun-18 22:49N 15°00' E 145°42'0 0.0 100 / 71012.9 30.5 30.1
2017-Jun-18 21:50N 15°00' E 145°42'0 0.0 100 / 81012.8 29.1 30.1
2017-Jun-18 20:51N 15°00' E 145°42'1313.6 100 / 121012.5 27.6 30.1
2017-Jun-18 19:52N 15°12' E 145°36'6 6.1 070 / 101011.8 29.8 30.1
2017-Jun-18 18:53N 15°18' E 145°36'8 8.5 090 / 141011.4 29.5 30.1
2017-Jun-18 17:54N 15°24' E 145°30'6 6.1 080 / 141011.6 27.5 30.2
2017-Jun-18 16:55N 15°30' E 145°30'6 6.0 090 / 101011.6 30.2 30.2
2017-Jun-18 15:55N 15°36' E 145°30'1313.5 080 / 91012.0 30.2 30.4
2017-Jun-18 14:56N 15°48' E 145°24'6 6.1 120 / 71012.3 30.1 30.6
2017-Jun-18 13:57N 15°54' E 145°24'6 6.3 110 / 131013.1 28.9 30.6
2017-Jun-18 13:00N 16°00' E 145°24'43 3.8 160 / 21013.8 29.3 30.5
2017-Jun-18 01:47N 16°36' E 145°48'8 8.5 070 / 121013.5 31.3 30.5
2017-Jun-18 00:48N 16°42' E 145°42'0 0.0 090 / 81013.9 30.9 30.4
2017-Jun-17 22:49N 16°42' E 145°42'0 0.0 070 / 91014.4 31.024.330.2
2017-Jun-17 21:50N 16°42' E 145°42'0 0.0 120 / 61014.2 31.312.130.1
2017-Jun-17 20:51N 16°42' E 145°42'0 0.0 060 / 71014.0 30.2 30.2
2017-Jun-17 19:52N 16°42' E 145°42'6 5.8 090 / 41013.6 30.0 30.3
2017-Jun-17 18:53N 16°42' E 145°36'6 5.8 070 / 61013.2 30.5 30.3
2017-Jun-17 17:54N 16°42' E 145°42'6 6.0 090 / 81013.1 30.3 30.3
2017-Jun-17 16:54N 16°48' E 145°42'6 6.1 070 / 81012.9 30.5 30.3
2017-Jun-17 15:55N 16°54' E 145°42'8 8.4 080 / 91013.1 30.1 30.4
2017-Jun-17 14:56N 17°00' E 145°36'60 3.5 090 / 111013.5 30.4 30.4
2017-Jun-16 21:48N 18°00' E 145°42'0 0.0 110 / 41014.4 31.4 30.2
2017-Jun-16 20:49N 18°00' E 145°42'0 0.0 130 / 41014.1 32.3 30.3
2017-Jun-16 19:49N 18°00' E 145°42'8 8.4 190 / 41013.9 30.4 30.2
2017-Jun-16 18:50N 18°06' E 145°36'0 0.0 160 / 51013.5 30.328.830.3
2017-Jun-16 17:51N 18°06' E 145°36'0 0.0 120 / 81012.8 30.5 30.3
2017-Jun-16 16:52N 18°06' E 145°36'0 0.0 170 / 71012.8 30.535.030.5
2017-Jun-16 15:53N 18°06' E 145°36'0 0.0 140 / 81012.9 30.634.330.5
2017-Jun-16 14:54N 18°06' E 145°36'0 0.0 120 / 81012.9 30.5 30.4
2017-Jun-16 13:55N 18°06' E 145°36'0 0.0 150 / 91013.6 30.725.830.4
2017-Jun-16 12:55N 18°06' E 145°36'0 0.0 110 / 101013.6 30.6 30.4
2017-Jun-16 11:56N 18°06' E 145°36'0 0.0 140 / 101013.6 30.3 30.6
2017-Jun-16 10:57N 18°06' E 145°36'6 5.8 160 / 71013.3 30.5 30.3
2017-Jun-16 09:58N 18°06' E 145°30'6 5.8 140 / 111013.1 30.4 30.7
2017-Jun-16 08:59N 18°06' E 145°24'17 4.0 130 / 61012.9 30.7 30.7
2017-Jun-16 04:45N 18°06' E 145°42'0 0.0 190 / 51012.7 35.4 7.930.6
2017-Jun-16 03:46N 18°06' E 145°42'0 0.0 180 / 81013.2 31.9 30.4
2017-Jun-16 02:47N 18°06' E 145°42'0 0.0 170 / 81013.5 32.8 30.2
2017-Jun-16 01:48N 18°06' E 145°42'0 0.0 160 / 81013.8 31.4 30.3
2017-Jun-16 00:49N 18°06' E 145°42'0 0.0 180 / 61014.3 34.2 2.430.2
2017-Jun-15 22:51N 18°06' E 145°42'0 0.0 180 / 51014.5 32.0 30.0
2017-Jun-15 21:51N 18°06' E 145°42'0 0.0 120 / 31014.2 31.2 30.2
2017-Jun-15 20:52N 18°06' E 145°42'0 0.0 120 / 41013.9 30.023.730.1
2017-Jun-15 19:53N 18°06' E 145°42'0 0.0 140 / 41013.7 28.0 30.0
2017-Jun-15 18:54N 18°06' E 145°42'1313.5 030 / 21013.4 28.9 30.3
2017-Jun-15 17:55N 18°18' E 145°36'6 6.1 080 / 61013.3 29.3 30.2
2017-Jun-15 16:56N 18°24' E 145°36'1313.5 060 / 71013.2 29.5 30.3
2017-Jun-15 15:57N 18°36' E 145°30'6 6.1 070 / 91013.9 28.8 30.4
2017-Jun-15 14:58N 18°42' E 145°30'1313.3 150 / 21014.4 30.2 30.3
2017-Jun-15 13:58N 18°54' E 145°24'75 5.7 090 / 41014.8 30.5 30.3
2017-Jun-15 00:46N 20°06' E 145°00'8 4.2 150 / 61014.8 33.4 30.7
2017-Jun-14 22:48N 20°00' E 145°06'8 8.4 140 / 91015.1 31.9 30.8
2017-Jun-14 21:49N 20°06' E 145°00'0 0.0 130 / 101014.7 30.8 30.8
2017-Jun-14 20:50N 20°06' E 145°00'8 8.2 130 / 61014.7 31.7 30.8
2017-Jun-14 19:50N 20°00' E 145°06'0 0.0 130 / 81013.9 30.7 30.8
2017-Jun-14 18:51N 20°00' E 145°06'6 5.7 100 / 71013.5 30.4 30.9
2017-Jun-14 17:52N 20°00' E 145°00'6 6.1 110 / 51014.3 30.2 30.8
2017-Jun-14 16:53N 20°06' E 145°00'0 0.0 130 / 41014.7 30.7 30.8
2017-Jun-14 15:56N 20°06' E 145°00'0 0.0 160 / 21014.9 30.3 30.7
2017-Jun-14 14:57N 20°06' E 145°00'0 0.0 170 / 21015.4 30.4 30.9
2017-Jun-14 13:58N 20°06' E 145°00'6 6.1 160 / 31015.8 30.4 31.0
2017-Jun-14 12:59N 20°00' E 145°00'11 1.2 190 / 31016.0 30.312.931.0
2017-Jun-14 03:47N 20°00' E 145°12'0 0.0 190 / 41014.7 32.8 31.0
2017-Jun-14 02:48N 20°00' E 145°12'0 0.0 170 / 61014.7 33.9 30.9
2017-Jun-14 01:48N 20°00' E 145°12'0 0.0 130 / 71015.0 31.8 30.8
2017-Jun-14 00:49N 20°00' E 145°12'0 0.0 130 / 41015.2 33.1 30.8
2017-Jun-13 22:51N 20°00' E 145°12'0 0.0 130 / 51015.0 32.2 30.6
2017-Jun-13 21:52N 20°00' E 145°12'0 0.0 120 / 51014.7 31.7 30.6
2017-Jun-13 20:53N 20°00' E 145°12'0 0.0 060 / 31014.6 31.8 30.6
2017-Jun-13 19:54N 20°00' E 145°12'6 5.6 140 / 61014.2 30.4 30.6
2017-Jun-13 18:54N 20°00' E 145°06'6 6.1 140 / 81014.2 30.429.930.8
2017-Jun-13 17:55N 19°54' E 145°06'6 6.1 120 / 91014.3 30.428.930.8
2017-Jun-13 16:56N 20°00' E 145°06'0 0.0 120 / 61014.3 30.3 30.9
2017-Jun-13 15:57N 20°00' E 145°06'0 0.0 280 / 11014.7 30.1 30.9
2017-Jun-13 14:58N 20°00' E 145°06'0 0.0 120 / 11015.3 30.6 30.8
2017-Jun-13 13:59N 20°00' E 145°06'0 0.0 170 / 11015.8 30.9 30.8
2017-Jun-13 13:00N 20°00' E 145°06'6 0.2 160 / 31016.2 31.030.630.8
2017-Jun-12 03:46N 20°00' E 145°12'0 0.0 270 / 41013.9 33.2 30.8
2017-Jun-12 02:47N 20°00' E 145°12'0 0.0 240 / 21014.1 34.8 30.6
2017-Jun-12 01:48N 20°00' E 145°12'0 0.0 170 / 31014.3 33.2 30.6
2017-Jun-12 00:49N 20°00' E 145°12'0 0.0 170 / 41014.4 33.3 30.7
2017-Jun-11 22:51N 20°00' E 145°12'0 0.0 160 / 41014.8 32.3 0.130.3
2017-Jun-11 21:51N 20°00' E 145°12'0 0.0 160 / 61014.4 31.1 30.3
2017-Jun-11 20:52N 20°00' E 145°12'0 0.0 130 / 31014.3 31.2 30.3
2017-Jun-11 19:53N 20°00' E 145°12'0 0.0 120 / 31013.9 30.0 30.3
2017-Jun-11 18:54N 20°00' E 145°12'6 5.7 160 / 21013.6 29.6 30.4
2017-Jun-11 17:55N 20°00' E 145°06'0 0.0 100 / 31013.4 29.8 30.5
2017-Jun-11 16:56N 20°00' E 145°06'0 0.0 120 / 11013.5 29.8 30.6
2017-Jun-11 15:57N 20°00' E 145°06'6 6.0 140 / 31014.0 30.225.430.6
2017-Jun-11 14:57N 19°54' E 145°06'6 6.1 100 / 11014.4 30.2 30.7
2017-Jun-11 13:58N 20°00' E 145°06'0 0.0 060 / 31015.0 30.2 30.6
2017-Jun-11 12:59N 20°00' E 145°06'   080 / 41015.4 30.322.830.6

Dump ship's entire track history